Midoey Viking — LGUP — position and weather

sailwx.info

Track history (hours):
 
Tides and Currents Weather Stations Pressure Air Temp Water Temp Dewpoint Dewpoint Depression Visibility Wind Speed Wind Dir Waves Ship Positions

Midoey Viking

Last reported at 2017-May-27 20:52 UTC. Time now 2017-May-28 02:44 UTC.
Position N 62°41' E 006°40'.

Length 33 m; draft 5.5 m.

Type: Fishing. MMSI: 257465500.

Date/timePositionNaut miles runAvg speedWind from/ knotsBaromVisibWave heightAir tempDewpointWater temp
2017-May-27 20:52N 62°41' E 006°40'0 0.0
2017-May-27 20:28N 62°41' E 006°40'0 0.0
2017-May-27 20:00N 62°41' E 006°40'0 0.0
2017-May-27 19:30N 62°41' E 006°40'0 0.0
2017-May-27 19:00N 62°41' E 006°40'0 0.0
2017-May-27 18:30N 62°41' E 006°40'0 0.0
2017-May-27 18:00N 62°41' E 006°40'0 0.0
2017-May-27 17:30N 62°41' E 006°40'0 0.0
2017-May-27 17:00N 62°41' E 006°40'0 0.0
2017-May-27 16:30N 62°41' E 006°40'0 0.0
2017-May-27 16:00N 62°41' E 006°40'0 0.0
2017-May-27 15:30N 62°41' E 006°40'0 0.0
2017-May-27 15:00N 62°41' E 006°40'0 0.0
2017-May-27 14:30N 62°41' E 006°40'  
2017-May-23 11:51N 62°42' E 006°39'3 7.4
2017-May-23 11:30N 62°45' E 006°38'4 8.2
2017-May-23 11:00N 62°49' E 006°41'4 8.1
2017-May-23 10:28N 62°53' E 006°43'7 8.5
2017-May-23 09:37N 62°59' E 006°51'1 8.7
2017-May-23 09:28N 63°00' E 006°52'4 8.6
2017-May-23 09:00N 63°04' E 006°56'4 8.4
2017-May-23 08:29N 63°08' E 006°60'4 8.3
2017-May-23 07:57N 63°12' E 007°04'4 8.2
2017-May-23 07:30N 63°15' E 007°07'2 1.5
2017-May-23 06:27N 63°17' E 007°08'0 0.3
2017-May-23 05:58N 63°17' E 007°08'0 0.3
2017-May-23 05:30N 63°17' E 007°08'0 0.1
2017-May-23 04:54N 63°17' E 007°08'0 0.2
2017-May-23 04:15N 63°17' E 007°07'0 0.3
2017-May-23 04:00N 63°17' E 007°07'0 0.1
2017-May-23 03:30N 63°16' E 007°07'0 0.5
2017-May-23 03:00N 63°17' E 007°07'37 7.1
2017-May-22 21:49N 62°42' E 006°39'  
Track history (hours):
 
Tides and Currents Weather Stations Pressure Air Temp Water Temp Dewpoint Dewpoint Depression Visibility Wind Speed Wind Dir Waves Ship Positions

Midoey Viking

Last reported at 2017-May-27 20:52 UTC. Time now 2017-May-28 02:44 UTC.
Position N 62°41' E 006°40'.

Length 33 m; draft 5.5 m.

Type: Fishing. MMSI: 257465500.

Date/timePositionNaut miles runAvg speedWind from/ knotsBaromVisibWave heightAir tempDewpointWater temp
2017-May-27 20:52N 62°41' E 006°40'0 0.0
2017-May-27 20:28N 62°41' E 006°40'0 0.0
2017-May-27 20:00N 62°41' E 006°40'0 0.0
2017-May-27 19:30N 62°41' E 006°40'0 0.0
2017-May-27 19:00N 62°41' E 006°40'0 0.0
2017-May-27 18:30N 62°41' E 006°40'0 0.0
2017-May-27 18:00N 62°41' E 006°40'0 0.0
2017-May-27 17:30N 62°41' E 006°40'0 0.0
2017-May-27 17:00N 62°41' E 006°40'0 0.0
2017-May-27 16:30N 62°41' E 006°40'0 0.0
2017-May-27 16:00N 62°41' E 006°40'0 0.0
2017-May-27 15:30N 62°41' E 006°40'0 0.0
2017-May-27 15:00N 62°41' E 006°40'0 0.0
2017-May-27 14:30N 62°41' E 006°40'  
2017-May-23 11:51N 62°42' E 006°39'3 7.4
2017-May-23 11:30N 62°45' E 006°38'4 8.2
2017-May-23 11:00N 62°49' E 006°41'4 8.1
2017-May-23 10:28N 62°53' E 006°43'7 8.5
2017-May-23 09:37N 62°59' E 006°51'1 8.7
2017-May-23 09:28N 63°00' E 006°52'4 8.6
2017-May-23 09:00N 63°04' E 006°56'4 8.4
2017-May-23 08:29N 63°08' E 006°60'4 8.3
2017-May-23 07:57N 63°12' E 007°04'4 8.2
2017-May-23 07:30N 63°15' E 007°07'2 1.5
2017-May-23 06:27N 63°17' E 007°08'0 0.3
2017-May-23 05:58N 63°17' E 007°08'0 0.3
2017-May-23 05:30N 63°17' E 007°08'0 0.1
2017-May-23 04:54N 63°17' E 007°08'0 0.2
2017-May-23 04:15N 63°17' E 007°07'0 0.3
2017-May-23 04:00N 63°17' E 007°07'0 0.1
2017-May-23 03:30N 63°16' E 007°07'0 0.5
2017-May-23 03:00N 63°17' E 007°07'37 7.1
2017-May-22 21:49N 62°42' E 006°39'  

Dump ship's entire track history